Samarkand, Uzbekistan
Current Conditions -  °F | °C
As of 12:00 PM on Monday 22 Dec 2014 (Local Time) from UTSS Reporting Station
Scattered Clouds Scattered Clouds  
Wind Chill: 46°   Ceiling: Unl
Heat Index: 48°   Visibility: 6mi
Dew Point: 37°   Wind: 5mph
Humidity: 66%   Direction: 290°WNW
Pressure: 30"   Gusts: NA
Location:  39.66°N, 66.95°E
Report Text: UTSS 220700Z 29004KT 260V330 9999 SCT200 09/03 Q1016 R88/CLRD70NOSIG
Loading
Personal Weather Stations






























Interactive Weather Map New forecast layout! Learn more

10-Day Weather Forecast

Advertisements
Track Severe Weather on mobile